sensor_id;sensor_type;location;lat;lon;timestamp;P1;durP1;ratioP1;P2;durP2;ratioP2
75356;SDS011;63946;51.986;5.930;2022-10-16T07:07:46;5.32;;;1.65;;
75356;SDS011;63946;51.986;5.930;2022-10-16T07:44:59;3.78;;;2.15;;
75356;SDS011;63946;51.986;5.930;2022-10-16T07:48:18;3.65;;;1.92;;
75356;SDS011;63946;51.986;5.930;2022-10-16T07:55:28;7.15;;;2.03;;
75356;SDS011;63946;51.986;5.930;2022-10-16T08:15:42;5.53;;;1.80;;
75356;SDS011;63946;51.986;5.930;2022-10-16T08:37:12;2.97;;;1.92;;
75356;SDS011;63946;51.986;5.930;2022-10-16T08:40:36;3.17;;;1.67;;
75356;SDS011;63946;51.986;5.930;2022-10-16T08:44:10;7.10;;;2.20;;
75356;SDS011;63946;51.986;5.930;2022-10-16T08:50:46;3.40;;;1.95;;
75356;SDS011;63946;51.986;5.930;2022-10-16T08:56:27;3.55;;;2.03;;
75356;SDS011;63946;51.986;5.930;2022-10-16T08:59:53;6.32;;;2.22;;
75356;SDS011;63946;51.986;5.930;2022-10-16T09:02:39;3.95;;;2.13;;
75356;SDS011;63946;51.986;5.930;2022-10-16T09:09:18;2.55;;;1.77;;
75356;SDS011;63946;51.986;5.930;2022-10-16T09:12:23;6.18;;;2.00;;
75356;SDS011;63946;51.986;5.930;2022-10-16T09:21:31;6.90;;;2.05;;
75356;SDS011;63946;51.986;5.930;2022-10-16T09:24:26;6.18;;;2.35;;
75356;SDS011;63946;51.986;5.930;2022-10-16T09:26:55;5.13;;;1.83;;
75356;SDS011;63946;51.986;5.930;2022-10-16T09:29:31;3.97;;;1.40;;
75356;SDS011;63946;51.986;5.930;2022-10-16T09:39:17;8.00;;;2.15;;
75356;SDS011;63946;51.986;5.930;2022-10-16T09:42:22;3.28;;;1.70;;
75356;SDS011;63946;51.986;5.930;2022-10-16T09:45:59;4.13;;;1.70;;
75356;SDS011;63946;51.986;5.930;2022-10-16T09:49:01;3.40;;;1.52;;
75356;SDS011;63946;51.986;5.930;2022-10-16T09:52:04;3.28;;;1.60;;
75356;SDS011;63946;51.986;5.930;2022-10-16T09:54:53;5.32;;;1.92;;
75356;SDS011;63946;51.986;5.930;2022-10-16T10:01:27;6.40;;;2.25;;
75356;SDS011;63946;51.986;5.930;2022-10-16T10:08:34;9.15;;;2.50;;
75356;SDS011;63946;51.986;5.930;2022-10-16T10:11:09;7.78;;;1.95;;
75356;SDS011;63946;51.986;5.930;2022-10-16T10:13:49;6.18;;;1.73;;
75356;SDS011;63946;51.986;5.930;2022-10-16T10:24:15;5.40;;;1.58;;
75356;SDS011;63946;51.986;5.930;2022-10-16T11:30:49;4.90;;;1.67;;
75356;SDS011;63946;51.986;5.930;2022-10-16T11:41:17;8.00;;;2.10;;
75356;SDS011;63946;51.986;5.930;2022-10-16T12:18:20;6.50;;;2.05;;
75356;SDS011;63946;51.986;5.930;2022-10-16T12:21:40;8.07;;;2.35;;
75356;SDS011;63946;51.986;5.930;2022-10-16T12:36:04;7.78;;;2.10;;
75356;SDS011;63946;51.986;5.930;2022-10-16T12:49:47;4.45;;;1.65;;
75356;SDS011;63946;51.986;5.930;2022-10-16T13:52:40;9.93;;;2.25;;
75356;SDS011;63946;51.986;5.930;2022-10-16T13:56:05;4.80;;;2.20;;
75356;SDS011;63946;51.986;5.930;2022-10-16T14:09:50;6.85;;;2.08;;
75356;SDS011;63946;51.986;5.930;2022-10-16T14:40:56;6.60;;;2.15;;
75356;SDS011;63946;51.986;5.930;2022-10-16T14:50:37;8.52;;;2.65;;
75356;SDS011;63946;51.986;5.930;2022-10-16T16:20:10;6.28;;;2.38;;
75356;SDS011;63946;51.986;5.930;2022-10-16T16:26:22;6.10;;;2.35;;
75356;SDS011;63946;51.986;5.930;2022-10-16T16:32:34;6.75;;;2.38;;
75356;SDS011;63946;51.986;5.930;2022-10-16T16:35:29;2.92;;;1.60;;
75356;SDS011;63946;51.986;5.930;2022-10-16T16:38:33;6.80;;;2.65;;
75356;SDS011;63946;51.986;5.930;2022-10-16T16:42:06;10.77;;;3.25;;
75356;SDS011;63946;51.986;5.930;2022-10-16T16:48:29;12.15;;;3.10;;
75356;SDS011;63946;51.986;5.930;2022-10-16T16:51:37;7.53;;;4.30;;
75356;SDS011;63946;51.986;5.930;2022-10-16T16:54:31;12.43;;;4.13;;
75356;SDS011;63946;51.986;5.930;2022-10-16T16:57:14;10.05;;;6.00;;
75356;SDS011;63946;51.986;5.930;2022-10-16T16:59:55;8.88;;;5.13;;
75356;SDS011;63946;51.986;5.930;2022-10-16T17:02:46;9.68;;;4.60;;
75356;SDS011;63946;51.986;5.930;2022-10-16T17:05:42;10.25;;;5.30;;
75356;SDS011;63946;51.986;5.930;2022-10-16T17:08:38;9.27;;;4.57;;
75356;SDS011;63946;51.986;5.930;2022-10-16T17:11:32;8.60;;;4.00;;
75356;SDS011;63946;51.986;5.930;2022-10-16T17:14:10;7.18;;;3.90;;
75356;SDS011;63946;51.986;5.930;2022-10-16T17:17:06;7.32;;;4.18;;
75356;SDS011;63946;51.986;5.930;2022-10-16T17:19:50;10.45;;;4.72;;
75356;SDS011;63946;51.986;5.930;2022-10-16T17:22:52;9.68;;;4.50;;
75356;SDS011;63946;51.986;5.930;2022-10-16T17:25:56;10.15;;;4.53;;
75356;SDS011;63946;51.986;5.930;2022-10-16T17:28:52;11.13;;;4.80;;
75356;SDS011;63946;51.986;5.930;2022-10-16T17:31:29;7.82;;;4.72;;
75356;SDS011;63946;51.986;5.930;2022-10-16T17:34:00;8.90;;;4.30;;
75356;SDS011;63946;51.986;5.930;2022-10-16T17:36:31;8.52;;;4.90;;
75356;SDS011;63946;51.986;5.930;2022-10-16T17:39:17;10.52;;;6.22;;
75356;SDS011;63946;51.986;5.930;2022-10-16T17:42:01;8.75;;;5.32;;
75356;SDS011;63946;51.986;5.930;2022-10-16T17:44:31;8.05;;;5.22;;
75356;SDS011;63946;51.986;5.930;2022-10-16T17:47:11;13.13;;;6.32;;
75356;SDS011;63946;51.986;5.930;2022-10-16T17:49:43;9.85;;;5.50;;
75356;SDS011;63946;51.986;5.930;2022-10-16T17:52:12;12.10;;;4.65;;
75356;SDS011;63946;51.986;5.930;2022-10-16T17:54:52;20.38;;;5.82;;
75356;SDS011;63946;51.986;5.930;2022-10-16T17:57:24;11.80;;;5.40;;
75356;SDS011;63946;51.986;5.930;2022-10-16T18:00:00;9.70;;;4.80;;
75356;SDS011;63946;51.986;5.930;2022-10-16T18:02:43;11.73;;;6.45;;
75356;SDS011;63946;51.986;5.930;2022-10-16T18:05:24;9.15;;;5.43;;
75356;SDS011;63946;51.986;5.930;2022-10-16T18:08:00;9.60;;;5.72;;
75356;SDS011;63946;51.986;5.930;2022-10-16T18:10:35;9.68;;;4.82;;
75356;SDS011;63946;51.986;5.930;2022-10-16T18:13:27;13.10;;;5.55;;
75356;SDS011;63946;51.986;5.930;2022-10-16T18:16:02;9.88;;;4.95;;
75356;SDS011;63946;51.986;5.930;2022-10-16T18:18:50;12.90;;;5.60;;
75356;SDS011;63946;51.986;5.930;2022-10-16T18:21:26;15.23;;;6.13;;
75356;SDS011;63946;51.986;5.930;2022-10-16T18:23:58;10.30;;;5.40;;
75356;SDS011;63946;51.986;5.930;2022-10-16T18:26:30;9.57;;;5.50;;
75356;SDS011;63946;51.986;5.930;2022-10-16T18:29:09;16.55;;;5.22;;
75356;SDS011;63946;51.986;5.930;2022-10-16T18:31:56;8.27;;;4.97;;
75356;SDS011;63946;51.986;5.930;2022-10-16T18:34:33;10.95;;;5.38;;
75356;SDS011;63946;51.986;5.930;2022-10-16T18:37:16;13.85;;;4.93;;
75356;SDS011;63946;51.986;5.930;2022-10-16T18:39:46;10.60;;;4.85;;
75356;SDS011;63946;51.986;5.930;2022-10-16T18:42:18;13.70;;;5.00;;
75356;SDS011;63946;51.986;5.930;2022-10-16T18:44:47;9.50;;;4.50;;
75356;SDS011;63946;51.986;5.930;2022-10-16T18:47:20;7.80;;;4.50;;
75356;SDS011;63946;51.986;5.930;2022-10-16T18:49:52;12.90;;;4.93;;
75356;SDS011;63946;51.986;5.930;2022-10-16T18:52:25;8.85;;;4.80;;
75356;SDS011;63946;51.986;5.930;2022-10-16T18:54:57;9.85;;;4.45;;
75356;SDS011;63946;51.986;5.930;2022-10-16T18:57:29;9.38;;;4.97;;
75356;SDS011;63946;51.986;5.930;2022-10-16T19:00:01;12.27;;;5.18;;
75356;SDS011;63946;51.986;5.930;2022-10-16T19:02:36;7.75;;;5.05;;
75356;SDS011;63946;51.986;5.930;2022-10-16T19:05:10;9.50;;;5.57;;
75356;SDS011;63946;51.986;5.930;2022-10-16T19:07:49;10.07;;;5.07;;
75356;SDS011;63946;51.986;5.930;2022-10-16T19:10:23;9.68;;;5.25;;
75356;SDS011;63946;51.986;5.930;2022-10-16T19:12:56;7.35;;;4.28;;
75356;SDS011;63946;51.986;5.930;2022-10-16T19:15:33;9.40;;;4.63;;
75356;SDS011;63946;51.986;5.930;2022-10-16T19:18:16;7.57;;;4.78;;
75356;SDS011;63946;51.986;5.930;2022-10-16T19:21:08;10.20;;;4.65;;
75356;SDS011;63946;51.986;5.930;2022-10-16T19:23:41;12.18;;;6.47;;
75356;SDS011;63946;51.986;5.930;2022-10-16T19:26:20;16.65;;;6.50;;
75356;SDS011;63946;51.986;5.930;2022-10-16T19:28:51;13.98;;;6.50;;
75356;SDS011;63946;51.986;5.930;2022-10-16T19:31:29;10.85;;;6.13;;
75356;SDS011;63946;51.986;5.930;2022-10-16T19:33:59;14.13;;;6.72;;
75356;SDS011;63946;51.986;5.930;2022-10-16T19:36:33;13.45;;;6.78;;
75356;SDS011;63946;51.986;5.930;2022-10-16T19:39:15;12.68;;;6.47;;
75356;SDS011;63946;51.986;5.930;2022-10-16T19:41:54;10.90;;;5.10;;
75356;SDS011;63946;51.986;5.930;2022-10-16T19:44:36;11.10;;;5.75;;
75356;SDS011;63946;51.986;5.930;2022-10-16T19:47:07;11.75;;;5.80;;
75356;SDS011;63946;51.986;5.930;2022-10-16T19:49:36;9.80;;;5.05;;
75356;SDS011;63946;51.986;5.930;2022-10-16T19:52:07;8.52;;;5.38;;
75356;SDS011;63946;51.986;5.930;2022-10-16T19:54:36;12.70;;;6.20;;
75356;SDS011;63946;51.986;5.930;2022-10-16T19:57:11;10.60;;;5.80;;
75356;SDS011;63946;51.986;5.930;2022-10-16T20:02:14;10.25;;;5.65;;
75356;SDS011;63946;51.986;5.930;2022-10-16T20:04:46;11.65;;;5.43;;
75356;SDS011;63946;51.986;5.930;2022-10-16T20:07:16;17.08;;;6.57;;
75356;SDS011;63946;51.986;5.930;2022-10-16T20:09:45;16.63;;;6.55;;
75356;SDS011;63946;51.986;5.930;2022-10-16T20:12:14;14.05;;;6.47;;
75356;SDS011;63946;51.986;5.930;2022-10-16T20:14:46;9.50;;;4.82;;
75356;SDS011;63946;51.986;5.930;2022-10-16T20:17:16;10.27;;;6.38;;
75356;SDS011;63946;51.986;5.930;2022-10-16T20:19:49;14.35;;;5.07;;
75356;SDS011;63946;51.986;5.930;2022-10-16T20:22:21;11.27;;;5.75;;
75356;SDS011;63946;51.986;5.930;2022-10-16T20:24:53;11.40;;;5.78;;
75356;SDS011;63946;51.986;5.930;2022-10-16T20:27:22;10.48;;;5.85;;
75356;SDS011;63946;51.986;5.930;2022-10-16T20:29:54;9.18;;;5.70;;
75356;SDS011;63946;51.986;5.930;2022-10-16T20:32:25;8.80;;;5.10;;
75356;SDS011;63946;51.986;5.930;2022-10-16T20:35:03;9.13;;;5.78;;
75356;SDS011;63946;51.986;5.930;2022-10-16T20:37:47;10.77;;;5.07;;
75356;SDS011;63946;51.986;5.930;2022-10-16T20:40:20;14.93;;;6.30;;
75356;SDS011;63946;51.986;5.930;2022-10-16T20:42:49;11.65;;;6.25;;
75356;SDS011;63946;51.986;5.930;2022-10-16T20:45:21;11.85;;;5.93;;
75356;SDS011;63946;51.986;5.930;2022-10-16T20:47:52;15.02;;;6.60;;
75356;SDS011;63946;51.986;5.930;2022-10-16T20:50:43;7.63;;;5.45;;
75356;SDS011;63946;51.986;5.930;2022-10-16T20:53:16;10.20;;;6.15;;
75356;SDS011;63946;51.986;5.930;2022-10-16T20:55:52;9.77;;;5.78;;
75356;SDS011;63946;51.986;5.930;2022-10-16T20:58:24;8.70;;;5.75;;
75356;SDS011;63946;51.986;5.930;2022-10-16T21:01:05;9.95;;;5.63;;
75356;SDS011;63946;51.986;5.930;2022-10-16T21:03:40;8.48;;;4.80;;
75356;SDS011;63946;51.986;5.930;2022-10-16T21:06:14;8.70;;;5.22;;
75356;SDS011;63946;51.986;5.930;2022-10-16T21:08:48;9.10;;;5.18;;
75356;SDS011;63946;51.986;5.930;2022-10-16T21:11:18;11.02;;;5.68;;
75356;SDS011;63946;51.986;5.930;2022-10-16T21:13:50;9.05;;;5.22;;
75356;SDS011;63946;51.986;5.930;2022-10-16T21:16:22;7.10;;;4.63;;
75356;SDS011;63946;51.986;5.930;2022-10-16T21:18:55;7.13;;;4.40;;
75356;SDS011;63946;51.986;5.930;2022-10-16T21:21:27;9.55;;;5.03;;
75356;SDS011;63946;51.986;5.930;2022-10-16T21:23:58;6.80;;;4.80;;
75356;SDS011;63946;51.986;5.930;2022-10-16T21:26:30;13.15;;;5.38;;
75356;SDS011;63946;51.986;5.930;2022-10-16T21:29:02;7.57;;;4.75;;
75356;SDS011;63946;51.986;5.930;2022-10-16T21:31:35;6.03;;;4.57;;
75356;SDS011;63946;51.986;5.930;2022-10-16T21:34:11;11.57;;;5.60;;
75356;SDS011;63946;51.986;5.930;2022-10-16T21:36:42;6.72;;;4.32;;
75356;SDS011;63946;51.986;5.930;2022-10-16T21:39:12;7.32;;;4.97;;
75356;SDS011;63946;51.986;5.930;2022-10-16T21:41:44;9.60;;;5.57;;
75356;SDS011;63946;51.986;5.930;2022-10-16T21:44:15;6.60;;;4.60;;
75356;SDS011;63946;51.986;5.930;2022-10-16T21:46:50;5.90;;;4.53;;
75356;SDS011;63946;51.986;5.930;2022-10-16T21:49:22;8.35;;;4.35;;
75356;SDS011;63946;51.986;5.930;2022-10-16T21:51:51;7.18;;;4.90;;
75356;SDS011;63946;51.986;5.930;2022-10-16T21:54:21;5.45;;;4.50;;
75356;SDS011;63946;51.986;5.930;2022-10-16T21:56:51;9.75;;;4.53;;
75356;SDS011;63946;51.986;5.930;2022-10-16T21:59:24;5.65;;;4.55;;
75356;SDS011;63946;51.986;5.930;2022-10-16T22:01:53;11.15;;;5.05;;
75356;SDS011;63946;51.986;5.930;2022-10-16T22:04:22;6.38;;;4.03;;
75356;SDS011;63946;51.986;5.930;2022-10-16T22:06:51;8.48;;;4.43;;
75356;SDS011;63946;51.986;5.930;2022-10-16T22:09:20;12.15;;;5.30;;
75356;SDS011;63946;51.986;5.930;2022-10-16T22:11:49;8.20;;;4.88;;
75356;SDS011;63946;51.986;5.930;2022-10-16T22:14:21;14.73;;;5.25;;
75356;SDS011;63946;51.986;5.930;2022-10-16T22:16:50;6.82;;;4.47;;
75356;SDS011;63946;51.986;5.930;2022-10-16T22:19:20;8.73;;;4.97;;
